»·PEaware :: ASA1013 KGEG-KSEA

ASA1013 :: KGEG-KSEA

FLIGHT INFORMATION

Flight Status: Arrived
Operator:
Alaska Airlines
More flights by this operator :: More flights under this callsign
Pilot: Joe C. (19058)
Aircraft: BOEING 737-900
(B739)
More flights by this aircraft type
Origin: KGEG Spokane Intl
United States
Destination: KSEA Seattle-Tacoma Intl
United States
More flights between these airports :: More routes between these airports
Route: +GEG3 TEMPL GLASR1
File this flight plan on PilotEdge
Remarks: PBN / A1B1C1D1S1S2 DOF / 180608 REG / N922SB OPR / ASA PER / D RMK / TCAS SIMBRIEF
Altitude:
(Current/Filed)
30,000ft
Speed:
(Current/Filed)
437kts
Departed: 07-Jun-18 04:29 PM
Arrived: 07-Jun-18 05:15 PM
Distance/Time
Traveled:
194nm/0:46
Distance/Time
To Go:
Arrived

Flight Plot

Page will automatically refresh every two minutes.

Flight plan parsing failed; only flown route is shown


Map Options




Map Legend


Flown Route
Filed Route
Departure Airport
Arrival Airport
Navaid (VOR, NDB)
Fix

Horizontal Profiles

Position Reports

Time Latitude Longitude Heading Altitude Ground
Speed
07-Jun-18 16:13 47.623975 -117.536360 34 2363ft 0kts
07-Jun-18 16:14 47.623975 -117.536360 34 2363ft 0kts
07-Jun-18 16:15 47.623975 -117.536360 34 2363ft 0kts
07-Jun-18 16:16 47.623975 -117.536360 34 2363ft 0kts
07-Jun-18 16:17 47.623975 -117.536360 34 2363ft 0kts
07-Jun-18 16:18 47.623975 -117.536360 34 2363ft 0kts
07-Jun-18 16:19 47.623975 -117.536360 34 2363ft 0kts
07-Jun-18 16:20 47.623975 -117.536360 34 2363ft 0kts
07-Jun-18 16:21 47.623975 -117.536360 34 2363ft 0kts
07-Jun-18 16:22 47.623923 -117.536421 61 2363ft 1kts
07-Jun-18 16:23 47.624009 -117.536766 141 2363ft 0kts
07-Jun-18 16:24 47.624009 -117.536766 141 2363ft 0kts
07-Jun-18 16:25 47.623989 -117.536744 141 2363ft 1kts
07-Jun-18 16:26 47.625117 -117.531504 44 2356ft 31kts
07-Jun-18 16:27 47.632257 -117.520702 61 2331ft 10kts
07-Jun-18 16:28 47.632282 -117.520148 110 2329ft 9kts
07-Jun-18 16:29 47.624602 -117.528229 225 2354ft 130kts
07-Jun-18 16:30 47.585349 -117.579099 219 4347ft 243kts
07-Jun-18 16:31 47.527501 -117.646840 219 8319ft 277kts
07-Jun-18 16:32 47.466213 -117.719642 219 10008ft 283kts
07-Jun-18 16:33 47.415682 -117.808177 268 11517ft 316kts
07-Jun-18 16:34 47.438255 -117.938270 283 14978ft 342kts
07-Jun-18 16:35 47.465617 -118.078625 283 15322ft 351kts
07-Jun-18 16:36 47.492184 -118.215193 282 19130ft 354kts
07-Jun-18 16:37 47.519554 -118.357229 281 22328ft 369kts
07-Jun-18 16:38 47.546379 -118.497301 281 25045ft 383kts
07-Jun-18 16:39 47.575412 -118.649992 280 27616ft 398kts
07-Jun-18 16:40 47.605163 -118.807901 279 29877ft 408kts
07-Jun-18 16:41 47.636695 -118.977443 280 29906ft 445kts
07-Jun-18 16:42 47.669667 -119.155277 280 29897ft 447kts
07-Jun-18 16:43 47.702370 -119.333199 280 29890ft 447kts
07-Jun-18 16:44 47.733074 -119.510975 273 29885ft 442kts
07-Jun-18 16:45 47.747340 -119.690819 271 29893ft 441kts
07-Jun-18 16:46 47.761148 -119.871504 271 29886ft 441kts
07-Jun-18 16:47 47.774799 -120.052588 271 29874ft 441kts
07-Jun-18 16:48 47.788199 -120.233557 272 29873ft 441kts
07-Jun-18 16:49 47.801381 -120.414842 272 29873ft 440kts
07-Jun-18 16:50 47.813720 -120.586036 272 27556ft 392kts
07-Jun-18 16:51 47.824835 -120.745489 271 25184ft 391kts
07-Jun-18 16:52 47.835496 -120.901785 272 22955ft 380kts
07-Jun-18 16:53 47.845772 -121.055160 272 20895ft 367kts
07-Jun-18 16:54 47.855516 -121.203485 271 18986ft 346kts
07-Jun-18 16:55 47.864682 -121.346125 272 17064ft 344kts
07-Jun-18 16:56 47.873263 -121.482092 272 15171ft 337kts
07-Jun-18 16:57 47.881718 -121.617840 272 13208ft 303kts
07-Jun-18 16:58 47.865725 -121.727753 224 12005ft 279kts
07-Jun-18 16:59 47.809166 -121.806465 222 11996ft 280kts
07-Jun-18 17:00 47.751901 -121.884281 222 11995ft 279kts
07-Jun-18 17:01 47.694484 -121.961939 222 11993ft 279kts
07-Jun-18 17:02 47.637268 -122.039003 221 11991ft 279kts
07-Jun-18 17:03 47.581180 -122.120117 246 10653ft 277kts
07-Jun-18 17:04 47.607007 -122.212809 346 8973ft 296kts
07-Jun-18 17:05 47.689313 -122.221467 354 7187ft 290kts
07-Jun-18 17:06 47.767115 -122.228468 352 5381ft 278kts
07-Jun-18 17:07 47.787786 -122.307342 218 4028ft 256kts
07-Jun-18 17:08 47.722865 -122.340741 197 3978ft 227kts
07-Jun-18 17:09 47.667324 -122.317016 155 3988ft 207kts
07-Jun-18 17:10 47.616809 -122.306798 180 3445ft 167kts
07-Jun-18 17:11 47.575000 -122.306887 180 2622ft 136kts
07-Jun-18 17:12 47.538740 -122.307157 180 1912ft 130kts
07-Jun-18 17:13 47.502910 -122.307450 180 1219ft 128kts
07-Jun-18 17:14 47.467359 -122.307613 181 552ft 127kts
07-Jun-18 17:15 47.452132 -122.306676 136 419ft 5kts
07-Jun-18 17:16 47.450941 -122.306231 180 414ft 24kts
07-Jun-18 17:17 47.445612 -122.304827 91 394ft 10kts
07-Jun-18 17:18 47.445606 -122.304464 91 394ft 0kts

Navigation Log

Ident Type
Flight plan parsing failed, navigation log unavailable